Time;durP1;ratioP1;P1;durP2;ratioP2;P2;SDS_P1;SDS_P2;PMS_P1;PMS_P2;Temp;Humidity;BMP_temperature;BMP_pressure;BME280_temperature;BME280_humidity;BME280_pressure;Samples;Min_cycle;Max_cycle;Signal;HPM_P1;HPM_P2
2022/04/12 21:57:38;;;;;;;;;10.50;8.50;;;;;16.34;38.98;98887.41;5805144;23;104146;-65
2022/04/12 22:00:09;;;;;;;;;9.00;8.00;;;;;16.35;39.13;98881.72;4828065;29;102319;-65
2022/04/12 22:02:36;;;;;;;;;7.25;7.00;;;;;16.35;39.23;98880.88;4830265;29;102531;-65
2022/04/12 22:05:06;;;;;;;;;9.25;9.00;;;;;16.34;39.59;98881.97;4834009;29;102256;-64
2022/04/12 22:07:35;;;;;;;;;7.25;6.50;;;;;16.34;39.47;98884.69;4828993;29;104250;-64
2022/04/12 22:10:02;;;;;;;;;9.00;8.25;;;;;16.31;39.16;98887.84;4830372;29;102305;-64
2022/04/12 22:12:29;;;;;;;;;10.25;8.25;;;;;16.31;39.44;98885.13;4816165;29;102528;-64
2022/04/12 22:14:56;;;;;;;;;8.75;7.50;;;;;16.30;39.13;98883.47;4828701;29;102382;-64
2022/04/12 22:17:23;;;;;;;;;10.00;8.25;;;;;16.29;39.33;98882.66;4819725;29;104290;-64
2022/04/12 22:19:51;;;;;;;;;9.25;9.25;;;;;16.28;39.40;98877.41;4829750;29;102297;-65
2022/04/12 22:22:20;;;;;;;;;9.75;8.25;;;;;16.26;39.11;98874.91;4832226;29;102762;-64
2022/04/12 22:24:47;;;;;;;;;9.50;8.75;;;;;16.24;39.54;98877.03;4831933;29;102850;-64
2022/04/12 22:27:14;;;;;;;;;9.25;8.25;;;;;16.23;39.50;98889.03;4834766;29;104044;-64
2022/04/12 22:29:41;;;;;;;;;11.00;9.50;;;;;16.22;39.59;98881.88;4827623;29;103538;-64
2022/04/12 22:32:09;;;;;;;;;10.50;9.25;;;;;16.22;38.95;98889.25;4829294;29;102373;-64
2022/04/12 22:34:36;;;;;;;;;11.25;9.25;;;;;16.22;39.46;98894.69;4830488;29;102666;-65
2022/04/12 22:37:03;;;;;;;;;12.75;9.25;;;;;16.18;39.31;98897.06;4832293;29;104235;-64
2022/04/12 22:39:30;;;;;;;;;10.25;9.00;;;;;16.19;39.41;98889.72;4811705;29;102056;-64
2022/04/12 22:41:59;;;;;;;;;12.00;10.25;;;;;16.17;39.05;98881.75;4830834;29;103463;-64
2022/04/12 22:44:26;;;;;;;;;7.50;7.50;;;;;16.19;39.33;98890.53;4829207;29;102326;-65
2022/04/12 22:46:53;;;;;;;;;10.25;8.75;;;;;16.18;39.01;98891.59;4830936;29;103100;-65
2022/04/12 22:49:20;;;;;;;;;13.25;10.75;;;;;16.18;38.82;98885.31;4831922;29;102043;-65
2022/04/12 22:51:47;;;;;;;;;11.00;10.00;;;;;16.18;38.99;98890.75;4834008;29;102305;-65
2022/04/12 22:54:18;;;;;;;;;8.00;8.00;;;;;16.14;39.48;98884.94;4831711;29;102710;-65
2022/04/12 22:56:46;;;;;;;;;10.50;8.75;;;;;16.14;39.19;98890.41;4833340;29;103958;-64
2022/04/12 22:59:13;;;;;;;;;10.50;9.00;;;;;16.15;39.72;98891.22;4821851;29;103803;-65
2022/04/12 23:01:40;;;;;;;;;9.50;8.50;;;;;16.14;39.29;98893.13;4822719;29;102663;-65
2022/04/12 23:04:07;;;;;;;;;9.75;8.50;;;;;16.14;39.56;98889.56;4823133;29;102719;-65
2022/04/12 23:06:34;;;;;;;;;9.50;8.50;;;;;16.11;39.53;98890.88;4820994;29;104605;-65
2022/04/12 23:09:01;;;;;;;;;11.00;9.00;;;;;16.11;39.70;98895.47;4801911;29;102372;-65
2022/04/12 23:11:28;;;;;;;;;10.00;9.00;;;;;16.10;39.15;98899.28;4820339;29;102403;-64
2022/04/12 23:13:55;;;;;;;;;11.75;10.50;;;;;16.07;39.54;98895.13;4824427;29;102373;-64
2022/04/12 23:16:21;;;;;;;;;10.75;8.25;;;;;16.05;39.37;98892.59;4823159;29;104159;-64
2022/04/12 23:18:48;;;;;;;;;12.00;10.50;;;;;16.04;39.35;98892.81;4820050;29;102108;-65
2022/04/12 23:21:16;;;;;;;;;13.25;11.75;;;;;16.05;39.08;98891.78;4823841;29;102218;-65
2022/04/12 23:23:43;;;;;;;;;11.50;11.00;;;;;16.06;38.97;98896.16;4826465;29;103024;-65
2022/04/12 23:26:10;;;;;;;;;11.75;10.00;;;;;16.03;39.23;98886.53;4826226;29;104079;-65
2022/04/12 23:28:37;;;;;;;;;9.00;8.25;;;;;16.05;38.89;98891.78;4821883;29;102499;-65
2022/04/12 23:31:03;;;;;;;;;13.25;10.00;;;;;16.04;39.30;98898.28;4824200;29;102096;-65
2022/04/12 23:33:32;;;;;;;;;11.00;9.25;;;;;16.03;39.12;98891.16;4807362;29;102470;-64
2022/04/12 23:35:59;;;;;;;;;11.00;11.00;;;;;16.03;39.21;98894.72;4826506;29;103819;-65
2022/04/12 23:38:26;;;;;;;;;12.00;11.75;;;;;16.01;39.35;98896.84;4821740;29;102419;-64
2022/04/12 23:40:53;;;;;;;;;11.50;9.25;;;;;16.02;39.21;98904.00;4821956;29;102300;-64
2022/04/12 23:43:24;;;;;;;;;10.00;10.00;;;;;16.01;38.90;98907.78;4825616;29;102247;-65
2022/04/12 23:45:51;;;;;;;;;14.00;13.00;;;;;15.99;39.50;98903.59;4820438;29;104104;-65
2022/04/12 23:48:18;;;;;;;;;10.50;9.25;;;;;15.98;39.13;98900.06;4819936;29;102935;-65
2022/04/12 23:50:45;;;;;;;;;8.50;8.50;;;;;15.96;39.59;98902.16;4821717;29;102457;-64
2022/04/12 23:53:12;;;;;;;;;11.00;10.25;;;;;15.95;39.24;98903.22;4821785;29;102603;-65
2022/04/12 23:55:40;;;;;;;;;11.00;11.00;;;;;15.93;39.35;98899.91;4823182;29;104108;-65
2022/04/12 23:58:07;;;;;;;;;10.00;10.00;;;;;15.92;39.32;98900.13;4822353;29;102207;-65
